Time;durP1;ratioP1;P1;durP2;ratioP2;P2;SDS_P1;SDS_P2;PMS_P1;PMS_P2;Temp;Humidity;BMP_temperature;BMP_pressure;BME280_temperature;BME280_humidity;BME280_pressure;Samples;Min_cycle;Max_cycle;Signal;HPM_P1;HPM_P2
2022/10/07 00:00:14;;;;;;;27.65;25.63;;;;;;;14.57;56.71;102650.13;4992417;28;20494;-76
2022/10/07 00:02:40;;;;;;;27.52;25.70;;;;;;;14.55;56.87;102648.66;5007478;28;20791;-75
2022/10/07 00:05:06;;;;;;;28.50;26.40;;;;;;;14.54;56.68;102647.84;5006870;28;20087;-74
2022/10/07 00:07:31;;;;;;;27.20;25.35;;;;;;;14.54;56.65;102641.56;5007842;28;20105;-75
2022/10/07 00:09:56;;;;;;;25.77;24.27;;;;;;;14.51;56.98;102634.63;5005552;28;20492;-76
2022/10/07 00:12:22;;;;;;;27.17;25.38;;;;;;;14.50;56.84;102635.72;4992669;28;20042;-76
2022/10/07 00:14:47;;;;;;;26.02;24.10;;;;;;;14.49;56.54;102632.16;4992291;28;20052;-76
2022/10/07 00:17:13;;;;;;;28.15;26.00;;;;;;;14.47;56.60;102631.53;5010338;28;20212;-76
2022/10/07 00:19:38;;;;;;;24.88;23.02;;;;;;;14.47;56.78;102634.25;5006235;28;20089;-76
2022/10/07 00:22:03;;;;;;;25.95;24.42;;;;;;;14.45;56.88;102630.94;5005700;28;20089;-76
2022/10/07 00:24:29;;;;;;;26.88;24.98;;;;;;;14.44;56.88;102621.13;5008877;28;20500;-75
2022/10/07 00:26:54;;;;;;;26.58;25.00;;;;;;;14.43;56.67;102629.50;5005868;28;20038;-74
2022/10/07 00:29:20;;;;;;;26.85;23.42;;;;;;;14.42;56.79;102627.84;4989227;28;20062;-76
2022/10/07 00:31:45;;;;;;;25.88;24.13;;;;;;;14.41;56.35;102624.28;5006087;28;20374;-76
2022/10/07 00:34:11;;;;;;;26.30;24.17;;;;;;;14.40;56.91;102629.94;5007601;28;20030;-76
2022/10/07 00:36:37;;;;;;;28.13;25.60;;;;;;;14.38;56.75;102621.16;4989885;28;20041;-75
2022/10/07 00:39:13;;;;;;;26.13;24.08;;;;;;;14.37;56.75;102616.78;5007510;28;20145;-74
2022/10/07 00:41:44;;;;;;;27.17;25.50;;;;;;;14.35;56.80;102614.28;5009064;28;20218;-75
2022/10/07 00:44:32;;;;;;;27.67;25.10;;;;;;;14.34;56.83;102614.50;5006966;28;20041;-74
2022/10/07 00:47:03;;;;;;;25.80;23.85;;;;;;;14.32;56.98;102614.75;5006071;28;20026;-75
2022/10/07 00:49:36;;;;;;;26.83;25.00;;;;;;;14.32;56.98;102613.91;5008019;28;20037;-75
2022/10/07 00:52:01;;;;;;;26.52;24.50;;;;;;;14.31;56.52;102615.78;5006755;28;20045;-75
2022/10/07 00:54:27;;;;;;;26.80;25.10;;;;;;;14.27;56.89;102614.56;5002571;28;20030;-75
2022/10/07 00:56:52;;;;;;;25.27;23.65;;;;;;;14.28;56.64;102613.50;5007789;28;20038;-75
2022/10/07 00:59:19;;;;;;;26.48;23.92;;;;;;;14.26;56.84;102613.75;4989870;28;20194;-75
2022/10/07 01:01:45;;;;;;;25.77;24.23;;;;;;;14.24;56.88;102602.25;5002007;28;20100;-76
2022/10/07 01:04:13;;;;;;;25.77;24.02;;;;;;;14.24;56.98;102596.00;5004592;28;20456;-75
2022/10/07 01:06:39;;;;;;;25.60;23.80;;;;;;;14.22;56.66;102596.22;5008717;28;20042;-76
2022/10/07 01:09:09;;;;;;;24.45;22.88;;;;;;;14.21;57.01;102591.84;5008700;28;20096;-75
2022/10/07 01:11:53;;;;;;;27.02;25.05;;;;;;;14.21;56.85;102586.41;5002904;28;20474;-75
2022/10/07 01:14:51;;;;;;;25.83;24.00;;;;;;;14.19;57.07;102584.97;5009467;28;20045;-75
2022/10/07 01:17:27;;;;;;;26.58;24.80;;;;;;;14.17;56.90;102579.72;5009362;28;20076;-76
2022/10/07 01:20:14;;;;;;;25.17;23.60;;;;;;;14.16;56.67;102574.50;5010379;28;21371;-75
2022/10/07 01:23:16;;;;;;;27.15;25.17;;;;;;;14.14;56.79;102569.31;5005446;28;20042;-75
2022/10/07 01:26:03;;;;;;;25.77;23.88;;;;;;;14.12;56.89;102562.44;5002791;28;20038;-76
2022/10/07 01:28:36;;;;;;;26.35;24.50;;;;;;;14.10;56.66;102568.09;5008491;28;20108;-76
2022/10/07 01:31:05;;;;;;;26.35;23.95;;;;;;;14.09;56.94;102561.00;5008167;28;20052;-76
2022/10/07 01:33:33;;;;;;;28.35;26.45;;;;;;;14.09;56.77;102562.88;5003538;28;20030;-76
2022/10/07 01:36:08;;;;;;;25.88;24.05;;;;;;;14.07;56.56;102553.06;5007017;28;20038;-76
2022/10/07 01:38:37;;;;;;;24.85;22.92;;;;;;;14.06;57.07;102545.97;5003926;28;20033;-76
2022/10/07 01:41:16;;;;;;;25.80;24.00;;;;;;;14.05;56.73;102540.75;5006588;28;20045;-76
2022/10/07 01:43:44;;;;;;;24.30;22.90;;;;;;;14.04;56.96;102533.66;5005680;28;20030;-76
2022/10/07 01:46:17;;;;;;;25.38;23.63;;;;;;;14.03;56.73;102534.69;5005005;28;20034;-76
2022/10/07 01:48:45;;;;;;;26.10;24.45;;;;;;;14.02;56.64;102541.19;5001046;28;20103;-76
2022/10/07 01:51:11;;;;;;;24.35;22.55;;;;;;;14.01;56.83;102534.06;5006589;28;20394;-76
2022/10/07 01:53:49;;;;;;;26.98;25.10;;;;;;;14.01;56.72;102534.06;5004780;28;20080;-76
2022/10/07 01:56:43;;;;;;;23.23;21.93;;;;;;;13.98;56.92;102524.47;5005639;28;20117;-76
2022/10/07 01:59:28;;;;;;;23.95;22.42;;;;;;;13.97;57.00;102525.53;4999157;28;20127;-76
2022/10/07 02:02:26;;;;;;;24.60;23.00;;;;;;;13.96;57.01;102517.59;5006619;28;20032;-76
2022/10/07 02:05:08;;;;;;;24.87;22.90;;;;;;;13.94;56.78;102520.56;5002931;28;20148;-76
2022/10/07 02:07:50;;;;;;;25.17;23.38;;;;;;;13.93;57.20;102510.72;5007724;28;20288;-76
2022/10/07 02:10:34;;;;;;;24.52;22.77;;;;;;;13.92;57.01;102508.25;5005821;28;20034;-76
2022/10/07 02:13:10;;;;;;;24.45;22.85;;;;;;;13.90;57.04;102500.31;5003573;28;20105;-76
2022/10/07 02:15:45;;;;;;;28.23;25.73;;;;;;;13.90;56.89;102502.22;5007701;28;20030;-76
2022/10/07 02:18:16;;;;;;;23.25;21.50;;;;;;;13.89;56.79;102511.44;5004957;28;20379;-76
2022/10/07 02:20:46;;;;;;;24.38;22.77;;;;;;;13.88;57.01;102502.41;5002302;28;20038;-76
2022/10/07 02:23:15;;;;;;;24.35;22.55;;;;;;;13.87;56.95;102499.94;5007501;28;20049;-76
2022/10/07 02:25:46;;;;;;;24.88;23.10;;;;;;;13.85;56.96;102487.41;5007381;28;20038;-76
2022/10/07 02:28:14;;;;;;;26.17;22.90;;;;;;;13.85;56.92;102481.13;5008823;28;20030;-76
2022/10/07 02:30:43;;;;;;;25.65;23.27;;;;;;;13.83;57.09;102477.81;5002438;28;20053;-76
2022/10/07 02:33:10;;;;;;;23.08;21.63;;;;;;;13.83;57.16;102478.66;5007519;28;20053;-76
2022/10/07 02:36:09;;;;;;;25.17;23.15;;;;;;;13.81;57.03;102475.34;5007113;28;20034;-76
2022/10/07 02:38:37;;;;;;;23.52;21.42;;;;;;;13.81;56.97;102471.78;5008449;28;20042;-76
2022/10/07 02:41:11;;;;;;;25.80;23.70;;;;;;;13.79;57.14;102472.00;5003422;28;20033;-75
2022/10/07 02:43:47;;;;;;;24.30;22.80;;;;;;;13.78;56.82;102464.91;5002516;28;20178;-75
2022/10/07 02:46:40;;;;;;;23.98;22.50;;;;;;;13.77;57.11;102465.94;5005658;28;20378;-76
2022/10/07 02:49:09;;;;;;;23.85;22.45;;;;;;;13.76;57.00;102458.03;5003802;28;20034;-76
2022/10/07 02:51:45;;;;;;;25.70;23.73;;;;;;;13.74;56.82;102455.53;5007647;28;20026;-76
2022/10/07 02:54:13;;;;;;;23.08;21.65;;;;;;;13.73;56.95;102453.84;5006910;28;20026;-76
2022/10/07 02:56:39;;;;;;;24.70;23.10;;;;;;;13.72;56.91;102452.22;5007135;28;20494;-76
2022/10/07 02:59:08;;;;;;;24.77;22.98;;;;;;;13.71;57.19;102447.00;5007410;28;20486;-76
2022/10/07 03:01:38;;;;;;;;;;;;;;;13.70;57.00;102439.91;5007981;28;20061;-76
2022/10/07 03:04:04;;;;;;;23.63;22.13;;;;;;;13.68;57.06;102440.13;5003948;28;20358;-76
2022/10/07 03:06:30;;;;;;;23.95;21.83;;;;;;;13.67;57.10;102438.47;4988565;28;20104;-76
2022/10/07 03:08:56;;;;;;;24.15;22.42;;;;;;;13.65;56.86;102440.56;5005793;28;21002;-76
2022/10/07 03:11:23;;;;;;;24.80;23.02;;;;;;;13.65;57.09;102437.84;5004275;28;20040;-76
2022/10/07 03:13:48;;;;;;;24.38;22.75;;;;;;;13.64;57.20;102444.34;5001273;28;20026;-75
2022/10/07 03:16:14;;;;;;;25.13;23.38;;;;;;;13.62;57.22;102428.25;5007082;28;20379;-76
2022/10/07 03:18:40;;;;;;;24.75;22.95;;;;;;;13.62;57.07;102443.72;4990018;28;20041;-76
2022/10/07 03:21:06;;;;;;;23.25;21.83;;;;;;;13.59;56.98;102434.16;5004479;28;20041;-75
2022/10/07 03:23:32;;;;;;;24.05;22.25;;;;;;;13.59;57.10;102427.88;5004334;28;20030;-76
2022/10/07 03:25:58;;;;;;;23.73;22.10;;;;;;;13.58;56.96;102427.06;5005893;28;20433;-76
2022/10/07 03:28:27;;;;;;;24.05;22.38;;;;;;;13.57;57.24;102430.81;5011222;28;20048;-76
2022/10/07 03:30:53;;;;;;;25.35;23.65;;;;;;;13.57;57.25;102421.84;5009499;28;20080;-76
2022/10/07 03:33:25;;;;;;;22.90;21.30;;;;;;;13.56;57.19;102422.91;5006170;28;20479;-76
2022/10/07 03:35:50;;;;;;;36.35;22.77;;;;;;;13.54;57.21;102417.69;5008039;28;20046;-76
2022/10/07 03:38:16;;;;;;;25.38;22.83;;;;;;;13.52;56.98;102414.34;5009961;28;20164;-76
2022/10/07 03:40:45;;;;;;;24.58;22.70;;;;;;;13.53;57.19;102412.47;4991558;28;20392;-76
2022/10/07 03:43:10;;;;;;;23.27;21.75;;;;;;;13.51;57.44;102423.56;5011292;28;20034;-76
2022/10/07 03:45:43;;;;;;;25.25;23.55;;;;;;;13.50;57.25;102419.16;5009091;28;20398;-76
2022/10/07 03:48:08;;;;;;;25.10;22.95;;;;;;;13.50;57.20;102419.16;5007539;28;20434;-76
2022/10/07 03:50:33;;;;;;;23.40;21.30;;;;;;;13.49;57.19;102411.28;5006441;28;20172;-75
2022/10/07 03:52:59;;;;;;;26.27;24.48;;;;;;;13.49;56.93;102413.97;5006397;28;20049;-76
2022/10/07 03:55:24;;;;;;;22.65;21.17;;;;;;;13.48;57.11;102409.59;4992407;28;20045;-76
2022/10/07 03:57:50;;;;;;;24.83;22.75;;;;;;;13.46;57.22;102409.81;5006451;28;20580;-76
2022/10/07 04:00:16;;;;;;;21.90;20.65;;;;;;;13.45;57.29;102404.59;5010547;28;20038;-75
2022/10/07 04:02:42;;;;;;;23.65;21.98;;;;;;;13.46;57.38;102411.72;5007465;28;20045;-76
2022/10/07 04:05:08;;;;;;;23.70;21.85;;;;;;;13.45;57.37;102404.59;5007516;28;20030;-75
2022/10/07 04:07:33;;;;;;;23.70;21.65;;;;;;;13.43;57.30;102407.56;4992475;28;20398;-76
2022/10/07 04:09:58;;;;;;;24.30;22.88;;;;;;;13.41;57.22;102405.06;5007987;28;20037;-76
2022/10/07 04:12:24;;;;;;;27.08;24.77;;;;;;;13.41;57.31;102404.22;5010371;28;20041;-76
2022/10/07 04:14:49;;;;;;;28.58;25.65;;;;;;;13.39;57.29;102388.16;5004569;28;20095;-76
2022/10/07 04:17:18;;;;;;;24.40;22.73;;;;;;;13.39;57.07;102390.03;5008288;28;20034;-76
2022/10/07 04:19:44;;;;;;;24.33;22.55;;;;;;;13.38;57.23;102391.06;5009232;28;20128;-76
2022/10/07 04:22:10;;;;;;;23.90;21.88;;;;;;;13.37;57.32;102382.09;5009326;28;20035;-76
2022/10/07 04:24:35;;;;;;;23.75;21.95;;;;;;;13.36;57.41;102391.31;5007775;28;20034;-76
2022/10/07 04:27:03;;;;;;;23.55;21.55;;;;;;;13.35;57.32;102384.22;5007025;28;20241;-76
2022/10/07 04:29:29;;;;;;;22.52;21.13;;;;;;;13.34;57.35;102387.16;5000898;28;20477;-76
2022/10/07 04:31:56;;;;;;;23.80;21.70;;;;;;;13.34;57.23;102387.16;4992642;28;20034;-76
2022/10/07 04:34:21;;;;;;;22.58;21.08;;;;;;;13.33;57.28;102390.91;5005579;28;20087;-77
2022/10/07 04:36:47;;;;;;;26.10;23.83;;;;;;;13.31;57.29;102385.72;5007985;28;20033;-75
2022/10/07 04:39:12;;;;;;;24.08;22.55;;;;;;;13.30;57.23;102385.94;5008839;28;20133;-75
2022/10/07 04:41:37;;;;;;;24.38;22.20;;;;;;;13.30;57.20;102389.47;4989492;28;20832;-75
2022/10/07 04:44:03;;;;;;;24.00;22.33;;;;;;;13.29;57.21;102389.72;4973733;28;20099;-74
2022/10/07 04:46:28;;;;;;;23.73;21.90;;;;;;;13.27;57.36;102383.66;5007776;28;20107;-75
2022/10/07 04:48:54;;;;;;;25.50;23.30;;;;;;;13.27;57.25;102391.81;5006999;28;20041;-75
2022/10/07 04:51:21;;;;;;;25.63;24.02;;;;;;;13.25;57.23;102383.84;5009271;28;20034;-75
2022/10/07 04:53:50;;;;;;;22.55;21.20;;;;;;;13.24;57.50;102387.63;5010008;28;20046;-75
2022/10/07 04:56:15;;;;;;;24.27;21.98;;;;;;;13.24;57.25;102387.63;5006119;28;20042;-75
2022/10/07 04:58:41;;;;;;;24.27;22.35;;;;;;;13.22;57.40;102381.56;5003411;28;20057;-75
2022/10/07 05:01:08;;;;;;;23.05;21.42;;;;;;;13.21;57.25;102380.75;4990745;28;20039;-75
2022/10/07 05:03:35;;;;;;;21.95;20.67;;;;;;;13.21;57.53;102379.91;5006127;28;20042;-75
2022/10/07 05:06:02;;;;;;;25.45;23.35;;;;;;;13.19;57.31;102380.13;5008184;28;20486;-74
2022/10/07 05:08:28;;;;;;;25.48;23.25;;;;;;;13.19;57.25;102374.69;5006734;28;20030;-74
2022/10/07 05:10:58;;;;;;;25.38;23.48;;;;;;;13.18;57.38;102374.94;5009341;28;20030;-76
2022/10/07 05:13:25;;;;;;;24.88;23.17;;;;;;;13.17;57.45;102382.22;5007578;28;20041;-74
2022/10/07 05:15:52;;;;;;;24.40;22.45;;;;;;;13.16;57.49;102371.63;5007771;28;20497;-75
2022/10/07 05:18:19;;;;;;;24.50;22.52;;;;;;;13.15;57.49;102367.22;5006825;28;20034;-77
2022/10/07 05:20:47;;;;;;;23.52;21.52;;;;;;;13.14;57.37;102365.56;5009269;28;20486;-75
2022/10/07 05:23:14;;;;;;;23.40;21.75;;;;;;;13.13;57.41;102361.22;5005284;28;20123;-77
2022/10/07 05:25:40;;;;;;;24.50;22.42;;;;;;;13.12;57.27;102368.50;5006447;28;20037;-76
2022/10/07 05:28:06;;;;;;;23.67;21.70;;;;;;;13.11;57.33;102360.59;5007104;28;20601;-77
2022/10/07 05:30:31;;;;;;;24.27;22.58;;;;;;;13.10;57.49;102353.47;5007021;28;20057;-76
2022/10/07 05:32:56;;;;;;;24.17;21.67;;;;;;;13.09;57.22;102362.69;5008610;28;20042;-77
2022/10/07 05:35:22;;;;;;;22.30;20.75;;;;;;;13.08;57.37;102355.59;5004035;28;20033;-77
2022/10/07 05:37:52;;;;;;;23.02;21.52;;;;;;;13.08;57.38;102359.16;5003144;28;20069;-78
2022/10/07 05:40:18;;;;;;;24.13;22.52;;;;;;;13.06;57.72;102366.66;5002014;28;20050;-77
2022/10/07 05:42:43;;;;;;;22.90;21.48;;;;;;;13.06;57.29;102355.00;5007588;28;20040;-76
2022/10/07 05:45:09;;;;;;;25.90;23.05;;;;;;;13.04;57.41;102355.19;5003179;28;20053;-75
2022/10/07 05:47:34;;;;;;;23.77;22.05;;;;;;;13.03;57.48;102348.13;5008289;28;20118;-75
2022/10/07 05:50:00;;;;;;;26.13;24.08;;;;;;;13.03;57.52;102356.25;5005026;28;20034;-75
2022/10/07 05:52:25;;;;;;;25.45;23.58;;;;;;;13.02;57.31;102356.47;5007308;28;20041;-74
2022/10/07 05:54:50;;;;;;;23.70;22.05;;;;;;;13.02;57.44;102353.75;5006084;28;20494;-77
2022/10/07 05:57:16;;;;;;;24.17;22.38;;;;;;;13.00;57.76;102345.81;5008433;28;20033;-76
2022/10/07 05:59:42;;;;;;;22.60;21.27;;;;;;;12.99;57.57;102341.47;5009239;28;20390;-76
2022/10/07 06:02:13;;;;;;;24.70;22.85;;;;;;;12.97;57.31;102336.25;5005659;28;20042;-76
2022/10/07 06:04:41;;;;;;;23.70;22.13;;;;;;;12.97;57.60;102330.81;5007194;28;20041;-75
2022/10/07 06:07:07;;;;;;;22.95;21.33;;;;;;;12.95;57.37;102330.25;5003453;28;20029;-76
2022/10/07 06:15:00;;;;;;;25.42;23.42;;;;;;;12.91;57.72;102334.44;4986656;28;20129;-76
2022/10/07 06:17:25;;;;;;;22.35;21.00;;;;;;;12.91;57.56;102322.75;4988869;28;20129;-75
2022/10/07 06:19:51;;;;;;;22.85;20.92;;;;;;;12.89;57.65;102331.09;5007385;28;20709;-76
2022/10/07 06:22:16;;;;;;;26.00;23.83;;;;;;;12.89;57.23;102330.28;5007093;28;20451;-75
2022/10/07 06:24:42;;;;;;;23.55;21.40;;;;;;;12.88;57.54;102337.59;4992041;28;20379;-75
2022/10/07 06:27:07;;;;;;;22.25;20.67;;;;;;;12.89;57.62;102332.97;5010269;28;20141;-75
2022/10/07 06:29:33;;;;;;;23.55;21.83;;;;;;;12.88;57.52;102334.06;4992689;28;20080;-75
2022/10/07 06:31:58;;;;;;;24.40;22.40;;;;;;;12.86;57.59;102328.84;5005703;28;20398;-76
2022/10/07 06:34:24;;;;;;;25.13;23.08;;;;;;;12.85;57.63;102329.91;5006800;28;20541;-74
2022/10/07 06:36:49;;;;;;;25.42;23.02;;;;;;;12.85;57.51;102323.63;5006133;28;20030;-72
2022/10/07 06:39:16;;;;;;;23.85;22.15;;;;;;;12.84;57.67;102327.38;5007900;28;20052;-74
2022/10/07 06:41:41;;;;;;;23.88;21.77;;;;;;;12.83;57.74;102328.44;5003264;28;22518;-75
2022/10/07 06:44:07;;;;;;;23.95;22.35;;;;;;;12.83;57.77;102333.88;4987883;28;20034;-74
2022/10/07 06:46:32;;;;;;;25.55;22.52;;;;;;;12.81;57.89;102339.50;5015983;28;20432;-76
2022/10/07 06:48:58;;;;;;;23.45;21.73;;;;;;;12.81;57.43;102335.97;5020554;28;20026;-75
2022/10/07 06:51:23;;;;;;;22.85;21.13;;;;;;;12.80;57.76;102337.00;5019568;28;20025;-75
2022/10/07 06:53:53;;;;;;;22.98;21.27;;;;;;;12.78;57.76;102337.25;5023997;28;20096;-76
2022/10/07 06:56:19;;;;;;;22.73;21.10;;;;;;;12.78;57.68;102338.06;5007847;28;20081;-77
2022/10/07 06:58:45;;;;;;;23.60;21.70;;;;;;;12.76;57.58;102334.72;5024196;28;20029;-77
2022/10/07 07:01:11;;;;;;;24.73;22.88;;;;;;;12.76;57.56;102334.72;5016246;28;20048;-77
2022/10/07 07:03:37;;;;;;;23.70;21.52;;;;;;;12.75;57.86;102334.94;5010798;28;20065;-76
2022/10/07 07:06:02;;;;;;;23.52;22.02;;;;;;;12.74;57.81;102336.81;5007462;28;20069;-75
2022/10/07 07:08:30;;;;;;;22.85;20.83;;;;;;;12.73;57.74;102327.03;5010922;28;20037;-75
2022/10/07 07:11:05;;;;;;;24.20;22.10;;;;;;;12.74;57.73;102334.13;5000602;28;20482;-74
2022/10/07 07:13:31;;;;;;;24.15;22.55;;;;;;;12.73;57.81;102334.34;5006118;28;20030;-74
2022/10/07 07:15:58;;;;;;;24.48;22.58;;;;;;;12.73;57.61;102331.63;4976363;28;20479;-75
2022/10/07 07:18:24;;;;;;;24.75;23.00;;;;;;;12.72;57.81;102336.22;5012926;28;20065;-76
2022/10/07 07:20:50;;;;;;;23.70;22.17;;;;;;;12.72;57.76;102333.50;5019869;28;20035;-76
2022/10/07 07:23:15;;;;;;;24.05;22.02;;;;;;;12.71;57.52;102322.88;5020529;28;20064;-76
2022/10/07 07:25:44;;;;;;;22.42;20.88;;;;;;;12.71;57.77;102325.59;5003735;28;20061;-75
2022/10/07 07:28:12;;;;;;;25.58;23.45;;;;;;;12.71;57.96;102336.44;5013680;28;20038;-76
2022/10/07 07:30:39;;;;;;;21.77;20.05;;;;;;;12.70;57.81;102326.63;5011517;28;20576;-76
2022/10/07 07:33:05;;;;;;;22.52;20.85;;;;;;;12.69;57.52;102330.41;5010626;28;20490;-76
2022/10/07 07:35:35;;;;;;;23.35;21.67;;;;;;;12.69;58.00;102330.41;5006338;28;20070;-76
2022/10/07 07:38:00;;;;;;;22.65;20.92;;;;;;;12.69;57.85;102331.22;5018308;28;20033;-77
2022/10/07 07:40:26;;;;;;;23.77;21.75;;;;;;;12.69;57.77;102327.69;5013102;28;20042;-76
2022/10/07 07:42:54;;;;;;;23.33;21.83;;;;;;;12.68;57.92;102324.16;5009580;28;20061;-77
2022/10/07 07:45:20;;;;;;;24.20;22.55;;;;;;;12.67;57.78;102325.19;5006456;28;20049;-74
2022/10/07 07:47:48;;;;;;;24.70;22.98;;;;;;;12.69;57.71;102324.97;5005699;28;20403;-76
2022/10/07 07:50:15;;;;;;;21.75;20.35;;;;;;;12.68;57.91;102328.75;5008863;28;20450;-76
2022/10/07 07:52:40;;;;;;;23.05;21.05;;;;;;;12.67;57.86;102321.66;5008575;28;20405;-76
2022/10/07 07:55:06;;;;;;;23.63;21.80;;;;;;;12.67;57.98;102322.47;5001459;28;20486;-77
2022/10/07 07:57:32;;;;;;;24.80;22.55;;;;;;;12.67;57.98;102318.94;5005464;28;20034;-77
2022/10/07 07:59:57;;;;;;;23.58;21.90;;;;;;;12.67;58.02;102321.66;5008085;28;20399;-77
2022/10/07 08:02:22;;;;;;;21.65;20.25;;;;;;;12.66;58.07;102320.81;5006415;28;20034;-76
2022/10/07 08:04:48;;;;;;;22.08;20.70;;;;;;;12.66;58.11;102320.81;5006074;28;20466;-77
2022/10/07 08:07:14;;;;;;;24.30;22.23;;;;;;;12.67;58.32;102318.94;5002166;28;20038;-76
2022/10/07 08:09:40;;;;;;;23.33;21.75;;;;;;;12.68;58.27;102324.16;5006710;28;20434;-76
2022/10/07 08:12:06;;;;;;;23.77;21.48;;;;;;;12.69;58.51;102320.38;5003033;28;20034;-76
2022/10/07 08:14:31;;;;;;;22.42;20.95;;;;;;;12.70;58.40;102322.06;5009506;28;20314;-76
2022/10/07 08:16:58;;;;;;;23.13;21.05;;;;;;;12.71;58.32;102310.16;4998568;28;20382;-76
2022/10/07 08:19:25;;;;;;;23.85;21.40;;;;;;;12.73;58.40;102315.38;5010803;28;20354;-76
2022/10/07 08:21:51;;;;;;;23.02;21.10;;;;;;;12.73;58.26;102310.78;5008399;28;20773;-76
2022/10/07 08:24:17;;;;;;;22.67;21.20;;;;;;;12.73;58.41;102316.19;5009859;28;20038;-76
2022/10/07 08:26:43;;;;;;;22.95;21.02;;;;;;;12.74;58.46;102312.41;5011006;28;20092;-76
2022/10/07 08:29:08;;;;;;;22.73;21.48;;;;;;;12.75;58.60;102315.97;5008728;28;20038;-75
2022/10/07 08:31:34;;;;;;;23.35;21.27;;;;;;;12.75;58.45;102316.81;4993672;28;20556;-76
2022/10/07 08:34:01;;;;;;;23.58;21.58;;;;;;;12.77;58.44;102305.72;4992489;28;20462;-76
2022/10/07 08:36:27;;;;;;;21.65;20.30;;;;;;;12.77;58.59;102303.03;5003784;28;20025;-76
2022/10/07 08:38:53;;;;;;;23.88;21.33;;;;;;;12.80;58.74;102299.03;5008008;28;20031;-75
2022/10/07 08:41:27;;;;;;;22.70;21.13;;;;;;;12.80;58.78;102302.59;5008217;28;20041;-76
2022/10/07 08:43:53;;;;;;;21.55;20.08;;;;;;;12.81;58.78;102295.28;5008953;28;20041;-75
2022/10/07 08:46:25;;;;;;;23.17;21.38;;;;;;;12.81;58.98;102293.41;5007830;28;20041;-74
2022/10/07 08:49:05;;;;;;;22.88;21.15;;;;;;;12.83;58.89;102293.19;5008965;28;20030;-74
2022/10/07 08:51:39;;;;;;;21.00;19.20;;;;;;;12.84;58.93;102289.44;5002459;28;20037;-75
2022/10/07 08:54:05;;;;;;;21.10;19.65;;;;;;;12.83;58.77;102288.59;5008883;28;20057;-75
2022/10/07 08:56:32;;;;;;;24.02;22.00;;;;;;;12.85;58.82;102289.22;5008214;28;20030;-75
2022/10/07 08:59:16;;;;;;;21.90;19.95;;;;;;;12.87;58.97;102278.13;5007178;28;20447;-78
2022/10/07 09:02:07;;;;;;;20.90;19.58;;;;;;;12.88;59.02;102277.09;5005164;28;20176;-77
2022/10/07 09:04:38;;;;;;;22.35;20.40;;;;;;;12.88;58.87;102272.50;5006646;28;20044;-78
2022/10/07 09:07:12;;;;;;;21.08;19.63;;;;;;;12.89;58.85;102266.00;5010061;28;20026;-75
2022/10/07 09:09:52;;;;;;;24.42;22.38;;;;;;;12.90;59.01;102270.41;5004377;28;20825;-76
2022/10/07 09:12:23;;;;;;;23.55;21.98;;;;;;;12.92;58.87;102270.97;5007044;28;20037;-75
2022/10/07 09:14:54;;;;;;;22.00;20.60;;;;;;;12.93;59.08;102275.38;5005642;28;20245;-76
2022/10/07 09:17:51;;;;;;;24.00;21.92;;;;;;;12.95;59.00;102267.84;5006288;28;20038;-76
2022/10/07 09:20:19;;;;;;;23.55;21.38;;;;;;;12.97;59.09;102263.00;5005320;28;20120;-76
2022/10/07 09:22:56;;;;;;;21.35;19.77;;;;;;;12.99;58.93;102260.09;5011290;28;20042;-76
2022/10/07 09:25:30;;;;;;;22.33;20.92;;;;;;;12.99;59.28;102263.63;5004611;28;20030;-76
2022/10/07 09:27:56;;;;;;;23.25;21.35;;;;;;;13.02;59.09;102258.81;5007040;28;20501;-75
2022/10/07 09:30:23;;;;;;;25.63;23.17;;;;;;;13.03;59.00;102260.47;5007888;28;20457;-75
2022/10/07 09:32:54;;;;;;;22.65;21.05;;;;;;;13.05;59.30;102255.66;5003597;28;20034;-72
2022/10/07 09:35:25;;;;;;;22.85;21.38;;;;;;;13.06;59.04;102249.19;5005254;28;20033;-75
2022/10/07 09:37:55;;;;;;;23.98;21.67;;;;;;;13.06;59.03;102251.91;5007256;28;20129;-74
2022/10/07 09:40:31;;;;;;;24.13;21.75;;;;;;;13.08;59.50;102249.78;5009502;28;20034;-73
2022/10/07 09:42:57;;;;;;;22.65;20.95;;;;;;;13.10;59.52;102244.97;5003731;28;20036;-75
2022/10/07 09:45:31;;;;;;;26.35;23.40;;;;;;;13.10;59.53;102234.97;4990436;28;20528;-75
2022/10/07 09:48:05;;;;;;;23.20;21.70;;;;;;;13.13;59.41;102239.13;5004601;28;20044;-77
2022/10/07 09:50:40;;;;;;;23.55;21.88;;;;;;;13.13;59.52;102239.94;5009406;28;20029;-75
2022/10/07 09:53:19;;;;;;;21.92;20.48;;;;;;;13.16;59.53;102233.25;5009919;28;20061;-75
2022/10/07 09:55:44;;;;;;;23.65;21.70;;;;;;;13.17;59.55;102234.88;5008965;28;20042;-75
2022/10/07 09:58:28;;;;;;;23.00;21.70;;;;;;;13.18;59.71;102231.13;5001372;28;20395;-75
2022/10/07 10:00:56;;;;;;;23.88;21.70;;;;;;;13.19;59.72;102227.34;5007422;28;20539;-74
2022/10/07 10:03:36;;;;;;;23.02;21.40;;;;;;;13.23;59.75;102219.59;5005729;28;20042;-73
2022/10/07 10:06:04;;;;;;;23.30;21.98;;;;;;;13.23;59.91;102217.72;5007139;28;20130;-74
2022/10/07 10:08:30;;;;;;;22.90;21.08;;;;;;;13.26;59.96;102213.75;5002031;28;20045;-76
2022/10/07 10:11:01;;;;;;;21.70;20.23;;;;;;;13.27;59.95;102202.66;5004518;28;20368;-75
2022/10/07 10:13:29;;;;;;;25.63;23.88;;;;;;;13.28;59.82;102207.06;5005386;28;20022;-74
2022/10/07 10:15:55;;;;;;;22.70;21.20;;;;;;;13.30;59.89;102204.09;4997773;28;20070;-75
2022/10/07 10:18:26;;;;;;;23.90;21.90;;;;;;;13.33;60.08;102201.78;5005559;28;20388;-74
2022/10/07 10:20:51;;;;;;;22.52;20.98;;;;;;;13.34;60.15;102203.44;5005167;28;20522;-74
2022/10/07 10:23:35;;;;;;;23.98;22.25;;;;;;;13.36;60.22;102201.31;5008299;28;20076;-75
2022/10/07 10:26:29;;;;;;;25.40;22.73;;;;;;;13.38;60.21;102201.94;5007782;28;20505;-73
2022/10/07 10:29:06;;;;;;;25.20;23.33;;;;;;;13.39;60.34;102198.16;5006057;28;20038;-74
2022/10/07 10:31:46;;;;;;;24.30;22.70;;;;;;;13.41;60.28;102187.09;5006794;28;20391;-76
2022/10/07 10:34:23;;;;;;;25.90;23.30;;;;;;;13.44;60.40;102183.91;5006319;28;20550;-75
2022/10/07 10:36:59;;;;;;;23.27;21.50;;;;;;;13.46;60.22;102170.13;5002857;28;20074;-75
2022/10/07 10:40:09;;;;;;;25.63;23.83;;;;;;;13.49;60.42;102172.38;5003666;28;20038;-75
2022/10/07 10:42:34;;;;;;;25.02;23.00;;;;;;;13.51;60.37;102170.28;4986914;28;20041;-74
2022/10/07 10:45:29;;;;;;;23.70;22.00;;;;;;;13.53;60.33;102165.41;5003994;28;20529;-74
2022/10/07 10:48:36;;;;;;;23.80;21.67;;;;;;;13.56;60.41;102152.25;4991869;28;20125;-75
2022/10/07 10:51:44;;;;;;;22.50;20.60;;;;;;;13.58;60.58;102154.72;4968519;28;20121;-75
2022/10/07 10:54:39;;;;;;;23.35;21.95;;;;;;;13.62;60.85;102140.44;4962101;28;20054;-80
2022/10/07 10:57:16;;;;;;;22.00;20.40;;;;;;;13.70;60.42;102133.88;5004781;28;20084;-75
2022/10/07 11:00:14;;;;;;;23.98;22.25;;;;;;;13.76;60.35;102132.16;5009433;28;20473;-76
2022/10/07 11:03:04;;;;;;;22.38;20.88;;;;;;;13.82;60.30;102133.94;5008617;28;20073;-77
2022/10/07 11:05:33;;;;;;;24.92;22.63;;;;;;;13.85;60.31;102133.47;5001380;28;20038;-76
2022/10/07 11:08:04;;;;;;;22.77;20.65;;;;;;;13.88;60.25;102134.88;5004031;28;20048;-76
2022/10/07 11:10:39;;;;;;;23.48;21.75;;;;;;;13.92;60.33;102119.81;5005199;28;20034;-76
2022/10/07 11:13:22;;;;;;;24.02;21.77;;;;;;;13.94;60.17;102120.41;5001774;28;20034;-75
2022/10/07 11:16:09;;;;;;;24.27;22.27;;;;;;;13.96;60.50;102110.97;5005138;28;20117;-76
2022/10/07 11:18:52;;;;;;;29.55;22.85;;;;;;;13.99;60.26;102109.66;5007043;28;20091;-76
2022/10/07 11:21:43;;;;;;;21.17;20.10;;;;;;;14.00;60.21;102103.16;5007529;28;20172;-76
2022/10/07 11:24:18;;;;;;;23.73;21.70;;;;;;;14.01;60.34;102100.22;5003442;28;20445;-76
2022/10/07 11:26:55;;;;;;;23.98;22.23;;;;;;;14.02;60.26;102099.16;5002476;28;20084;-76
2022/10/07 11:29:39;;;;;;;23.40;21.10;;;;;;;14.04;60.40;102088.06;5006936;28;20050;-76